sensor_id;sensor_type;location;lat;lon;timestamp;P1;durP1;ratioP1;P2;durP2;ratioP2
19095;SDS011;9680;52.520;13.332;2024-02-14T00:00:09;7.97;;;3.83;;
19095;SDS011;9680;52.520;13.332;2024-02-14T00:02:58;8.77;;;4.00;;
19095;SDS011;9680;52.520;13.332;2024-02-14T00:05:25;11.07;;;3.90;;
19095;SDS011;9680;52.520;13.332;2024-02-14T00:07:56;9.37;;;4.00;;
19095;SDS011;9680;52.520;13.332;2024-02-14T00:10:23;8.50;;;3.67;;
19095;SDS011;9680;52.520;13.332;2024-02-14T00:12:50;8.87;;;4.03;;
19095;SDS011;9680;52.520;13.332;2024-02-14T00:15:19;11.20;;;4.33;;
19095;SDS011;9680;52.520;13.332;2024-02-14T00:17:46;9.07;;;3.90;;
19095;SDS011;9680;52.520;13.332;2024-02-14T00:20:13;10.07;;;4.30;;
19095;SDS011;9680;52.520;13.332;2024-02-14T00:22:40;9.30;;;4.23;;
19095;SDS011;9680;52.520;13.332;2024-02-14T00:25:08;10.67;;;3.77;;
19095;SDS011;9680;52.520;13.332;2024-02-14T00:27:36;15.83;;;4.73;;
19095;SDS011;9680;52.520;13.332;2024-02-14T00:30:03;7.60;;;4.23;;
19095;SDS011;9680;52.520;13.332;2024-02-14T00:32:33;13.03;;;4.00;;
19095;SDS011;9680;52.520;13.332;2024-02-14T00:35:04;10.43;;;4.37;;
19095;SDS011;9680;52.520;13.332;2024-02-14T00:44:01;9.67;;;4.00;;
19095;SDS011;9680;52.520;13.332;2024-02-14T00:46:55;10.47;;;4.20;;
19095;SDS011;9680;52.520;13.332;2024-02-14T00:49:25;11.23;;;4.23;;
19095;SDS011;9680;52.520;13.332;2024-02-14T00:51:52;10.33;;;4.40;;
19095;SDS011;9680;52.520;13.332;2024-02-14T00:54:19;8.17;;;3.87;;
19095;SDS011;9680;52.520;13.332;2024-02-14T00:56:46;9.43;;;4.07;;
19095;SDS011;9680;52.520;13.332;2024-02-14T00:59:13;9.57;;;4.40;;
19095;SDS011;9680;52.520;13.332;2024-02-14T01:01:42;9.23;;;4.23;;
19095;SDS011;9680;52.520;13.332;2024-02-14T01:04:09;9.63;;;4.40;;
19095;SDS011;9680;52.520;13.332;2024-02-14T01:06:38;8.60;;;3.93;;
19095;SDS011;9680;52.520;13.332;2024-02-14T01:09:05;8.97;;;4.00;;
19095;SDS011;9680;52.520;13.332;2024-02-14T01:11:34;9.20;;;4.13;;
19095;SDS011;9680;52.520;13.332;2024-02-14T01:14:03;9.50;;;4.40;;
19095;SDS011;9680;52.520;13.332;2024-02-14T01:16:31;9.00;;;4.03;;
19095;SDS011;9680;52.520;13.332;2024-02-14T01:19:00;8.90;;;4.10;;
19095;SDS011;9680;52.520;13.332;2024-02-14T01:21:29;18.23;;;7.67;;
19095;SDS011;9680;52.520;13.332;2024-02-14T01:23:57;9.00;;;4.40;;
19095;SDS011;9680;52.520;13.332;2024-02-14T01:26:24;11.33;;;4.03;;
19095;SDS011;9680;52.520;13.332;2024-02-14T01:28:51;8.50;;;3.90;;
19095;SDS011;9680;52.520;13.332;2024-02-14T01:31:18;11.50;;;4.10;;
19095;SDS011;9680;52.520;13.332;2024-02-14T01:33:45;10.20;;;4.13;;
19095;SDS011;9680;52.520;13.332;2024-02-14T01:36:12;11.80;;;4.40;;
19095;SDS011;9680;52.520;13.332;2024-02-14T01:38:39;10.63;;;4.00;;
19095;SDS011;9680;52.520;13.332;2024-02-14T01:41:09;9.27;;;4.20;;
19095;SDS011;9680;52.520;13.332;2024-02-14T01:43:36;10.57;;;4.00;;
19095;SDS011;9680;52.520;13.332;2024-02-14T01:46:04;10.37;;;4.20;;
19095;SDS011;9680;52.520;13.332;2024-02-14T01:48:32;7.53;;;3.73;;
19095;SDS011;9680;52.520;13.332;2024-02-14T01:50:59;9.17;;;3.77;;
19095;SDS011;9680;52.520;13.332;2024-02-14T01:53:27;8.53;;;3.90;;
19095;SDS011;9680;52.520;13.332;2024-02-14T01:55:56;8.13;;;3.80;;
19095;SDS011;9680;52.520;13.332;2024-02-14T01:58:25;8.53;;;3.97;;
19095;SDS011;9680;52.520;13.332;2024-02-14T02:00:53;11.40;;;4.20;;
19095;SDS011;9680;52.520;13.332;2024-02-14T02:03:22;12.67;;;4.03;;
19095;SDS011;9680;52.520;13.332;2024-02-14T02:05:50;10.63;;;4.17;;
19095;SDS011;9680;52.520;13.332;2024-02-14T02:08:17;8.50;;;3.57;;
19095;SDS011;9680;52.520;13.332;2024-02-14T02:10:44;8.53;;;3.73;;
19095;SDS011;9680;52.520;13.332;2024-02-14T02:13:11;10.37;;;4.17;;
19095;SDS011;9680;52.520;13.332;2024-02-14T02:15:42;8.77;;;4.03;;
19095;SDS011;9680;52.520;13.332;2024-02-14T02:18:10;8.20;;;3.77;;
19095;SDS011;9680;52.520;13.332;2024-02-14T02:20:38;9.20;;;4.40;;
19095;SDS011;9680;52.520;13.332;2024-02-14T02:23:10;12.90;;;4.73;;
19095;SDS011;9680;52.520;13.332;2024-02-14T02:25:40;9.97;;;4.23;;
19095;SDS011;9680;52.520;13.332;2024-02-14T02:28:07;9.40;;;4.03;;
19095;SDS011;9680;52.520;13.332;2024-02-14T02:30:35;10.80;;;4.20;;
19095;SDS011;9680;52.520;13.332;2024-02-14T02:33:03;8.03;;;4.00;;
19095;SDS011;9680;52.520;13.332;2024-02-14T02:35:30;9.60;;;4.50;;
19095;SDS011;9680;52.520;13.332;2024-02-14T02:37:57;8.80;;;4.10;;
19095;SDS011;9680;52.520;13.332;2024-02-14T02:40:26;12.50;;;4.30;;
19095;SDS011;9680;52.520;13.332;2024-02-14T02:42:53;9.40;;;4.17;;
19095;SDS011;9680;52.520;13.332;2024-02-14T02:45:21;8.30;;;4.03;;
19095;SDS011;9680;52.520;13.332;2024-02-14T02:47:48;11.50;;;4.97;;
19095;SDS011;9680;52.520;13.332;2024-02-14T02:50:16;10.27;;;4.17;;
19095;SDS011;9680;52.520;13.332;2024-02-14T02:52:44;8.30;;;4.03;;
19095;SDS011;9680;52.520;13.332;2024-02-14T02:55:11;12.00;;;4.20;;
19095;SDS011;9680;52.520;13.332;2024-02-14T02:57:41;10.57;;;4.23;;
19095;SDS011;9680;52.520;13.332;2024-02-14T03:00:09;8.23;;;3.97;;
19095;SDS011;9680;52.520;13.332;2024-02-14T03:02:38;9.53;;;3.97;;
19095;SDS011;9680;52.520;13.332;2024-02-14T03:05:09;13.23;;;4.50;;
19095;SDS011;9680;52.520;13.332;2024-02-14T03:07:42;10.00;;;3.80;;
19095;SDS011;9680;52.520;13.332;2024-02-14T03:10:10;8.63;;;3.90;;
19095;SDS011;9680;52.520;13.332;2024-02-14T03:12:38;9.63;;;4.27;;
19095;SDS011;9680;52.520;13.332;2024-02-14T03:15:07;10.63;;;4.10;;
19095;SDS011;9680;52.520;13.332;2024-02-14T03:17:36;9.47;;;3.83;;
19095;SDS011;9680;52.520;13.332;2024-02-14T03:20:03;8.47;;;4.10;;
19095;SDS011;9680;52.520;13.332;2024-02-14T03:22:35;8.03;;;3.83;;
19095;SDS011;9680;52.520;13.332;2024-02-14T03:25:02;9.70;;;4.43;;
19095;SDS011;9680;52.520;13.332;2024-02-14T03:27:29;8.03;;;3.97;;
19095;SDS011;9680;52.520;13.332;2024-02-14T03:29:56;9.07;;;4.07;;
19095;SDS011;9680;52.520;13.332;2024-02-14T03:32:26;9.17;;;3.60;;
19095;SDS011;9680;52.520;13.332;2024-02-14T03:34:53;12.43;;;4.33;;
19095;SDS011;9680;52.520;13.332;2024-02-14T03:37:19;8.67;;;4.07;;
19095;SDS011;9680;52.520;13.332;2024-02-14T03:39:46;9.60;;;3.93;;
19095;SDS011;9680;52.520;13.332;2024-02-14T03:42:13;9.67;;;3.97;;
19095;SDS011;9680;52.520;13.332;2024-02-14T03:44:40;7.43;;;4.20;;
19095;SDS011;9680;52.520;13.332;2024-02-14T03:47:07;10.30;;;4.20;;
19095;SDS011;9680;52.520;13.332;2024-02-14T03:49:35;8.93;;;3.83;;
19095;SDS011;9680;52.520;13.332;2024-02-14T03:52:02;10.60;;;4.33;;
19095;SDS011;9680;52.520;13.332;2024-02-14T03:54:34;8.17;;;3.80;;
19095;SDS011;9680;52.520;13.332;2024-02-14T03:57:01;9.67;;;4.17;;
19095;SDS011;9680;52.520;13.332;2024-02-14T03:59:29;10.53;;;4.40;;
19095;SDS011;9680;52.520;13.332;2024-02-14T04:01:56;8.90;;;4.03;;
19095;SDS011;9680;52.520;13.332;2024-02-14T04:04:23;8.47;;;4.20;;
19095;SDS011;9680;52.520;13.332;2024-02-14T04:06:51;9.37;;;4.03;;
19095;SDS011;9680;52.520;13.332;2024-02-14T04:09:18;8.63;;;4.20;;
19095;SDS011;9680;52.520;13.332;2024-02-14T04:11:46;8.00;;;4.07;;
19095;SDS011;9680;52.520;13.332;2024-02-14T04:14:14;15.20;;;4.70;;
19095;SDS011;9680;52.520;13.332;2024-02-14T04:16:41;11.17;;;4.53;;
19095;SDS011;9680;52.520;13.332;2024-02-14T04:19:08;11.87;;;4.87;;
19095;SDS011;9680;52.520;13.332;2024-02-14T04:21:36;11.63;;;4.57;;
19095;SDS011;9680;52.520;13.332;2024-02-14T04:24:05;10.77;;;4.53;;
19095;SDS011;9680;52.520;13.332;2024-02-14T04:26:33;10.90;;;4.90;;
19095;SDS011;9680;52.520;13.332;2024-02-14T04:29:07;11.73;;;4.23;;
19095;SDS011;9680;52.520;13.332;2024-02-14T04:31:40;8.60;;;4.37;;
19095;SDS011;9680;52.520;13.332;2024-02-14T04:34:10;10.63;;;4.63;;
19095;SDS011;9680;52.520;13.332;2024-02-14T04:36:44;10.53;;;4.47;;
19095;SDS011;9680;52.520;13.332;2024-02-14T04:39:14;10.30;;;4.13;;
19095;SDS011;9680;52.520;13.332;2024-02-14T04:41:53;9.33;;;4.50;;
19095;SDS011;9680;52.520;13.332;2024-02-14T04:44:21;10.83;;;4.40;;
19095;SDS011;9680;52.520;13.332;2024-02-14T04:46:51;11.90;;;4.77;;
19095;SDS011;9680;52.520;13.332;2024-02-14T04:49:21;12.33;;;4.70;;
19095;SDS011;9680;52.520;13.332;2024-02-14T04:51:49;10.07;;;4.37;;
19095;SDS011;9680;52.520;13.332;2024-02-14T04:54:23;7.40;;;3.63;;
19095;SDS011;9680;52.520;13.332;2024-02-14T04:56:52;11.80;;;5.03;;
19095;SDS011;9680;52.520;13.332;2024-02-14T04:59:22;10.43;;;4.60;;
19095;SDS011;9680;52.520;13.332;2024-02-14T05:01:49;11.60;;;4.73;;
19095;SDS011;9680;52.520;13.332;2024-02-14T05:04:19;9.73;;;4.50;;
19095;SDS011;9680;52.520;13.332;2024-02-14T05:06:46;11.23;;;4.77;;
19095;SDS011;9680;52.520;13.332;2024-02-14T05:09:21;9.87;;;5.10;;
19095;SDS011;9680;52.520;13.332;2024-02-14T05:11:55;9.83;;;4.43;;
19095;SDS011;9680;52.520;13.332;2024-02-14T05:14:25;9.57;;;4.40;;
19095;SDS011;9680;52.520;13.332;2024-02-14T05:17:04;9.80;;;4.73;;
19095;SDS011;9680;52.520;13.332;2024-02-14T05:19:33;8.87;;;4.63;;
19095;SDS011;9680;52.520;13.332;2024-02-14T05:22:02;11.60;;;4.73;;
19095;SDS011;9680;52.520;13.332;2024-02-14T05:24:29;15.77;;;5.77;;
19095;SDS011;9680;52.520;13.332;2024-02-14T05:27:04;10.03;;;4.73;;
19095;SDS011;9680;52.520;13.332;2024-02-14T05:29:31;8.17;;;4.10;;
19095;SDS011;9680;52.520;13.332;2024-02-14T05:32:01;9.67;;;4.60;;
19095;SDS011;9680;52.520;13.332;2024-02-14T05:34:30;10.97;;;4.63;;
19095;SDS011;9680;52.520;13.332;2024-02-14T05:37:06;8.17;;;4.37;;
19095;SDS011;9680;52.520;13.332;2024-02-14T05:39:35;10.80;;;4.40;;
19095;SDS011;9680;52.520;13.332;2024-02-14T05:42:06;14.10;;;5.00;;
19095;SDS011;9680;52.520;13.332;2024-02-14T05:44:33;8.83;;;4.43;;
19095;SDS011;9680;52.520;13.332;2024-02-14T05:47:00;13.47;;;4.53;;
19095;SDS011;9680;52.520;13.332;2024-02-14T05:49:30;9.60;;;4.40;;
19095;SDS011;9680;52.520;13.332;2024-02-14T05:52:01;9.73;;;4.40;;
19095;SDS011;9680;52.520;13.332;2024-02-14T05:54:31;13.90;;;4.37;;
19095;SDS011;9680;52.520;13.332;2024-02-14T05:57:06;10.17;;;4.50;;
19095;SDS011;9680;52.520;13.332;2024-02-14T05:59:43;12.07;;;4.67;;
19095;SDS011;9680;52.520;13.332;2024-02-14T06:02:13;10.63;;;4.77;;
19095;SDS011;9680;52.520;13.332;2024-02-14T06:04:42;14.03;;;4.70;;
19095;SDS011;9680;52.520;13.332;2024-02-14T06:07:11;8.70;;;4.47;;
19095;SDS011;9680;52.520;13.332;2024-02-14T06:09:43;11.20;;;4.70;;
19095;SDS011;9680;52.520;13.332;2024-02-14T06:12:14;10.00;;;4.50;;
19095;SDS011;9680;52.520;13.332;2024-02-14T06:14:41;11.90;;;4.30;;
19095;SDS011;9680;52.520;13.332;2024-02-14T06:17:14;9.50;;;4.70;;
19095;SDS011;9680;52.520;13.332;2024-02-14T06:19:41;9.67;;;4.67;;
19095;SDS011;9680;52.520;13.332;2024-02-14T06:22:17;11.63;;;4.77;;
19095;SDS011;9680;52.520;13.332;2024-02-14T06:24:49;12.40;;;4.83;;
19095;SDS011;9680;52.520;13.332;2024-02-14T06:27:20;12.60;;;5.50;;
19095;SDS011;9680;52.520;13.332;2024-02-14T06:29:49;12.70;;;5.40;;
19095;SDS011;9680;52.520;13.332;2024-02-14T06:32:22;11.80;;;4.73;;
19095;SDS011;9680;52.520;13.332;2024-02-14T06:34:49;15.00;;;5.37;;
19095;SDS011;9680;52.520;13.332;2024-02-14T06:37:19;9.43;;;4.80;;
19095;SDS011;9680;52.520;13.332;2024-02-14T06:39:56;12.67;;;4.53;;
19095;SDS011;9680;52.520;13.332;2024-02-14T06:42:44;11.90;;;4.70;;
19095;SDS011;9680;52.520;13.332;2024-02-14T06:45:13;13.53;;;5.33;;
19095;SDS011;9680;52.520;13.332;2024-02-14T06:47:41;12.63;;;4.80;;
19095;SDS011;9680;52.520;13.332;2024-02-14T06:50:10;11.13;;;5.03;;
19095;SDS011;9680;52.520;13.332;2024-02-14T06:53:07;11.40;;;4.93;;
19095;SDS011;9680;52.520;13.332;2024-02-14T06:55:34;10.83;;;5.10;;
19095;SDS011;9680;52.520;13.332;2024-02-14T06:58:03;12.97;;;4.83;;
19095;SDS011;9680;52.520;13.332;2024-02-14T07:03:01;13.63;;;5.23;;
19095;SDS011;9680;52.520;13.332;2024-02-14T07:05:30;11.33;;;5.33;;
19095;SDS011;9680;52.520;13.332;2024-02-14T07:07:59;15.30;;;4.67;;
19095;SDS011;9680;52.520;13.332;2024-02-14T07:10:29;11.93;;;4.67;;
19095;SDS011;9680;52.520;13.332;2024-02-14T07:12:59;14.10;;;4.90;;
19095;SDS011;9680;52.520;13.332;2024-02-14T07:15:28;12.57;;;5.20;;
19095;SDS011;9680;52.520;13.332;2024-02-14T07:17:57;8.67;;;4.17;;
19095;SDS011;9680;52.520;13.332;2024-02-14T07:20:24;10.03;;;4.60;;
19095;SDS011;9680;52.520;13.332;2024-02-14T07:22:52;14.63;;;4.80;;
19095;SDS011;9680;52.520;13.332;2024-02-14T07:25:20;12.80;;;4.50;;
19095;SDS011;9680;52.520;13.332;2024-02-14T07:27:47;11.37;;;4.67;;
19095;SDS011;9680;52.520;13.332;2024-02-14T07:30:15;8.67;;;4.43;;
19095;SDS011;9680;52.520;13.332;2024-02-14T07:32:45;12.43;;;4.63;;
19095;SDS011;9680;52.520;13.332;2024-02-14T07:35:12;11.47;;;4.83;;
19095;SDS011;9680;52.520;13.332;2024-02-14T07:37:43;11.83;;;4.70;;
19095;SDS011;9680;52.520;13.332;2024-02-14T07:40:11;9.33;;;4.60;;
19095;SDS011;9680;52.520;13.332;2024-02-14T07:42:41;9.37;;;4.30;;
19095;SDS011;9680;52.520;13.332;2024-02-14T07:45:08;13.23;;;4.30;;
19095;SDS011;9680;52.520;13.332;2024-02-14T07:47:36;16.03;;;4.80;;
19095;SDS011;9680;52.520;13.332;2024-02-14T07:50:08;12.93;;;4.70;;
19095;SDS011;9680;52.520;13.332;2024-02-14T07:52:36;12.47;;;4.23;;
19095;SDS011;9680;52.520;13.332;2024-02-14T07:55:03;8.37;;;4.03;;
19095;SDS011;9680;52.520;13.332;2024-02-14T07:57:30;10.83;;;4.10;;
19095;SDS011;9680;52.520;13.332;2024-02-14T07:59:59;11.47;;;3.77;;
19095;SDS011;9680;52.520;13.332;2024-02-14T08:02:26;7.13;;;3.83;;
19095;SDS011;9680;52.520;13.332;2024-02-14T08:04:54;11.20;;;3.93;;
19095;SDS011;9680;52.520;13.332;2024-02-14T08:07:22;9.60;;;3.70;;
19095;SDS011;9680;52.520;13.332;2024-02-14T08:09:49;9.57;;;3.93;;
19095;SDS011;9680;52.520;13.332;2024-02-14T08:12:16;9.43;;;3.83;;
19095;SDS011;9680;52.520;13.332;2024-02-14T08:14:43;9.13;;;3.77;;
19095;SDS011;9680;52.520;13.332;2024-02-14T08:17:10;7.53;;;3.63;;
19095;SDS011;9680;52.520;13.332;2024-02-14T08:19:39;12.27;;;4.13;;
19095;SDS011;9680;52.520;13.332;2024-02-14T08:22:06;7.13;;;3.33;;
19095;SDS011;9680;52.520;13.332;2024-02-14T08:24:34;8.03;;;3.40;;
19095;SDS011;9680;52.520;13.332;2024-02-14T08:27:01;8.23;;;4.20;;
19095;SDS011;9680;52.520;13.332;2024-02-14T08:29:31;8.00;;;3.43;;
19095;SDS011;9680;52.520;13.332;2024-02-14T08:31:58;9.37;;;3.30;;
19095;SDS011;9680;52.520;13.332;2024-02-14T08:34:25;7.93;;;3.67;;
19095;SDS011;9680;52.520;13.332;2024-02-14T08:36:52;9.03;;;3.57;;
19095;SDS011;9680;52.520;13.332;2024-02-14T08:39:19;12.70;;;3.40;;
19095;SDS011;9680;52.520;13.332;2024-02-14T08:41:47;7.20;;;3.33;;
19095;SDS011;9680;52.520;13.332;2024-02-14T08:44:15;6.63;;;3.33;;
19095;SDS011;9680;52.520;13.332;2024-02-14T08:46:43;7.83;;;3.10;;
19095;SDS011;9680;52.520;13.332;2024-02-14T08:49:13;9.03;;;2.93;;
19095;SDS011;9680;52.520;13.332;2024-02-14T08:51:40;8.33;;;3.63;;
19095;SDS011;9680;52.520;13.332;2024-02-14T08:54:09;8.30;;;3.00;;
19095;SDS011;9680;52.520;13.332;2024-02-14T08:56:39;5.40;;;2.90;;
19095;SDS011;9680;52.520;13.332;2024-02-14T08:59:07;4.97;;;2.83;;
19095;SDS011;9680;52.520;13.332;2024-02-14T09:01:36;7.73;;;2.90;;
19095;SDS011;9680;52.520;13.332;2024-02-14T09:04:02;6.13;;;3.03;;
19095;SDS011;9680;52.520;13.332;2024-02-14T09:06:29;6.07;;;3.10;;
19095;SDS011;9680;52.520;13.332;2024-02-14T09:08:58;8.53;;;3.20;;
19095;SDS011;9680;52.520;13.332;2024-02-14T09:11:25;11.33;;;3.07;;
19095;SDS011;9680;52.520;13.332;2024-02-14T09:13:57;5.17;;;2.60;;
19095;SDS011;9680;52.520;13.332;2024-02-14T09:16:31;6.07;;;2.70;;
19095;SDS011;9680;52.520;13.332;2024-02-14T09:18:58;4.53;;;2.30;;
19095;SDS011;9680;52.520;13.332;2024-02-14T09:21:26;7.37;;;2.60;;
19095;SDS011;9680;52.520;13.332;2024-02-14T09:23:54;7.17;;;2.73;;
19095;SDS011;9680;52.520;13.332;2024-02-14T09:26:20;5.57;;;2.43;;
19095;SDS011;9680;52.520;13.332;2024-02-14T09:28:47;4.27;;;2.43;;
19095;SDS011;9680;52.520;13.332;2024-02-14T09:31:17;4.27;;;2.40;;
19095;SDS011;9680;52.520;13.332;2024-02-14T09:33:46;8.67;;;2.33;;
19095;SDS011;9680;52.520;13.332;2024-02-14T09:36:14;10.83;;;2.60;;
19095;SDS011;9680;52.520;13.332;2024-02-14T09:38:41;9.90;;;2.53;;
19095;SDS011;9680;52.520;13.332;2024-02-14T09:41:11;5.40;;;2.60;;
19095;SDS011;9680;52.520;13.332;2024-02-14T09:43:43;4.63;;;2.43;;
19095;SDS011;9680;52.520;13.332;2024-02-14T09:46:12;7.20;;;2.70;;
19095;SDS011;9680;52.520;13.332;2024-02-14T09:48:40;10.40;;;2.40;;
19095;SDS011;9680;52.520;13.332;2024-02-14T09:51:11;5.87;;;2.60;;
19095;SDS011;9680;52.520;13.332;2024-02-14T09:53:41;4.57;;;2.30;;
19095;SDS011;9680;52.520;13.332;2024-02-14T09:56:09;4.07;;;2.10;;
19095;SDS011;9680;52.520;13.332;2024-02-14T09:58:41;5.87;;;2.40;;
19095;SDS011;9680;52.520;13.332;2024-02-14T10:01:08;7.27;;;2.40;;
19095;SDS011;9680;52.520;13.332;2024-02-14T10:03:36;6.73;;;2.57;;
19095;SDS011;9680;52.520;13.332;2024-02-14T10:06:03;6.73;;;2.27;;
19095;SDS011;9680;52.520;13.332;2024-02-14T10:08:32;6.13;;;2.27;;
19095;SDS011;9680;52.520;13.332;2024-02-14T10:10:58;5.63;;;2.30;;
19095;SDS011;9680;52.520;13.332;2024-02-14T10:13:31;9.67;;;2.63;;
19095;SDS011;9680;52.520;13.332;2024-02-14T10:15:58;5.23;;;2.33;;
19095;SDS011;9680;52.520;13.332;2024-02-14T10:18:46;5.33;;;2.20;;
19095;SDS011;9680;52.520;13.332;2024-02-14T10:21:15;6.97;;;2.47;;
19095;SDS011;9680;52.520;13.332;2024-02-14T10:23:49;8.30;;;2.70;;
19095;SDS011;9680;52.520;13.332;2024-02-14T10:26:18;3.83;;;2.30;;
19095;SDS011;9680;52.520;13.332;2024-02-14T10:28:45;7.57;;;2.50;;
19095;SDS011;9680;52.520;13.332;2024-02-14T10:31:12;8.73;;;2.63;;
19095;SDS011;9680;52.520;13.332;2024-02-14T10:33:39;4.03;;;2.23;;
19095;SDS011;9680;52.520;13.332;2024-02-14T10:36:08;5.50;;;2.63;;
19095;SDS011;9680;52.520;13.332;2024-02-14T10:38:35;6.83;;;2.20;;
19095;SDS011;9680;52.520;13.332;2024-02-14T10:41:07;6.33;;;2.33;;
19095;SDS011;9680;52.520;13.332;2024-02-14T10:43:37;8.73;;;3.00;;
19095;SDS011;9680;52.520;13.332;2024-02-14T10:46:07;8.53;;;3.13;;
19095;SDS011;9680;52.520;13.332;2024-02-14T10:48:42;8.07;;;2.83;;
19095;SDS011;9680;52.520;13.332;2024-02-14T10:51:08;7.57;;;2.53;;
19095;SDS011;9680;52.520;13.332;2024-02-14T10:53:42;6.37;;;2.90;;
19095;SDS011;9680;52.520;13.332;2024-02-14T10:56:13;5.13;;;2.60;;
19095;SDS011;9680;52.520;13.332;2024-02-14T10:58:45;4.73;;;2.63;;
19095;SDS011;9680;52.520;13.332;2024-02-14T11:01:13;8.43;;;2.47;;
19095;SDS011;9680;52.520;13.332;2024-02-14T11:03:41;7.40;;;2.67;;
19095;SDS011;9680;52.520;13.332;2024-02-14T11:06:14;7.37;;;2.63;;
19095;SDS011;9680;52.520;13.332;2024-02-14T11:08:42;6.50;;;2.80;;
19095;SDS011;9680;52.520;13.332;2024-02-14T11:11:21;4.90;;;2.67;;
19095;SDS011;9680;52.520;13.332;2024-02-14T11:16:09;10.00;;;2.63;;
19095;SDS011;9680;52.520;13.332;2024-02-14T11:17:29;5.13;;;2.43;;
19095;SDS011;9680;52.520;13.332;2024-02-14T11:19:56;6.93;;;2.40;;
19095;SDS011;9680;52.520;13.332;2024-02-14T11:22:22;4.27;;;2.50;;
19095;SDS011;9680;52.520;13.332;2024-02-14T11:24:51;4.93;;;2.63;;
19095;SDS011;9680;52.520;13.332;2024-02-14T11:27:20;6.17;;;2.57;;
19095;SDS011;9680;52.520;13.332;2024-02-14T11:29:52;6.17;;;2.30;;
19095;SDS011;9680;52.520;13.332;2024-02-14T11:32:19;6.40;;;2.13;;
19095;SDS011;9680;52.520;13.332;2024-02-14T11:35:00;7.03;;;2.97;;
19095;SDS011;9680;52.520;13.332;2024-02-14T11:37:31;5.53;;;2.57;;
19095;SDS011;9680;52.520;13.332;2024-02-14T11:39:58;6.03;;;2.93;;
19095;SDS011;9680;52.520;13.332;2024-02-14T11:42:27;7.50;;;2.47;;
19095;SDS011;9680;52.520;13.332;2024-02-14T11:44:56;4.53;;;2.23;;
19095;SDS011;9680;52.520;13.332;2024-02-14T11:47:24;5.03;;;2.10;;
19095;SDS011;9680;52.520;13.332;2024-02-14T11:49:50;6.87;;;2.67;;
19095;SDS011;9680;52.520;13.332;2024-02-14T11:52:19;7.27;;;2.37;;
19095;SDS011;9680;52.520;13.332;2024-02-14T11:54:49;5.90;;;2.50;;
19095;SDS011;9680;52.520;13.332;2024-02-14T11:57:16;5.60;;;2.60;;
19095;SDS011;9680;52.520;13.332;2024-02-14T11:59:45;10.17;;;2.67;;
19095;SDS011;9680;52.520;13.332;2024-02-14T12:02:18;7.37;;;3.00;;
19095;SDS011;9680;52.520;13.332;2024-02-14T12:04:45;4.20;;;2.53;;
19095;SDS011;9680;52.520;13.332;2024-02-14T12:07:15;8.03;;;2.67;;
19095;SDS011;9680;52.520;13.332;2024-02-14T12:09:43;5.60;;;2.80;;
19095;SDS011;9680;52.520;13.332;2024-02-14T12:14:53;6.73;;;3.00;;
19095;SDS011;9680;52.520;13.332;2024-02-14T12:17:24;7.80;;;2.77;;
19095;SDS011;9680;52.520;13.332;2024-02-14T12:20:04;5.67;;;2.70;;
19095;SDS011;9680;52.520;13.332;2024-02-14T12:22:34;6.33;;;2.90;;
19095;SDS011;9680;52.520;13.332;2024-02-14T12:25:05;4.50;;;2.63;;
19095;SDS011;9680;52.520;13.332;2024-02-14T12:27:33;5.70;;;3.00;;
19095;SDS011;9680;52.520;13.332;2024-02-14T12:30:05;8.50;;;3.23;;
19095;SDS011;9680;52.520;13.332;2024-02-14T12:32:33;5.70;;;2.80;;
19095;SDS011;9680;52.520;13.332;2024-02-14T12:35:00;4.80;;;2.60;;
19095;SDS011;9680;52.520;13.332;2024-02-14T12:37:31;8.20;;;3.00;;
19095;SDS011;9680;52.520;13.332;2024-02-14T12:39:58;5.57;;;2.80;;
19095;SDS011;9680;52.520;13.332;2024-02-14T12:42:25;7.27;;;3.40;;
19095;SDS011;9680;52.520;13.332;2024-02-14T12:44:54;7.53;;;3.10;;
19095;SDS011;9680;52.520;13.332;2024-02-14T12:47:22;4.77;;;2.33;;
19095;SDS011;9680;52.520;13.332;2024-02-14T12:49:51;7.87;;;2.70;;
19095;SDS011;9680;52.520;13.332;2024-02-14T12:52:28;7.43;;;2.80;;
19095;SDS011;9680;52.520;13.332;2024-02-14T12:54:54;6.27;;;3.10;;
19095;SDS011;9680;52.520;13.332;2024-02-14T12:57:22;5.00;;;2.47;;
19095;SDS011;9680;52.520;13.332;2024-02-14T12:59:49;6.53;;;3.03;;
19095;SDS011;9680;52.520;13.332;2024-02-14T13:02:16;4.17;;;2.60;;
19095;SDS011;9680;52.520;13.332;2024-02-14T13:04:44;5.10;;;2.67;;
19095;SDS011;9680;52.520;13.332;2024-02-14T13:07:11;5.03;;;2.50;;
19095;SDS011;9680;52.520;13.332;2024-02-14T13:09:38;5.77;;;2.70;;
19095;SDS011;9680;52.520;13.332;2024-02-14T13:12:05;5.47;;;2.77;;
19095;SDS011;9680;52.520;13.332;2024-02-14T13:14:35;7.40;;;2.90;;
19095;SDS011;9680;52.520;13.332;2024-02-14T13:17:01;8.32;;;3.35;;
19095;SDS011;9680;52.520;13.332;2024-02-14T13:19:30;7.70;;;3.03;;
19095;SDS011;9680;52.520;13.332;2024-02-14T13:21:58;7.83;;;3.03;;
19095;SDS011;9680;52.520;13.332;2024-02-14T13:24:25;4.53;;;2.80;;
19095;SDS011;9680;52.520;13.332;2024-02-14T13:26:53;5.07;;;2.80;;
19095;SDS011;9680;52.520;13.332;2024-02-14T13:29:25;5.87;;;3.00;;
19095;SDS011;9680;52.520;13.332;2024-02-14T13:31:52;12.33;;;3.70;;
19095;SDS011;9680;52.520;13.332;2024-02-14T13:34:19;6.30;;;2.93;;
19095;SDS011;9680;52.520;13.332;2024-02-14T13:36:46;5.37;;;2.83;;
19095;SDS011;9680;52.520;13.332;2024-02-14T13:39:15;6.90;;;3.30;;
19095;SDS011;9680;52.520;13.332;2024-02-14T13:41:42;6.73;;;3.30;;
19095;SDS011;9680;52.520;13.332;2024-02-14T13:44:10;5.33;;;3.00;;
19095;SDS011;9680;52.520;13.332;2024-02-14T13:46:37;9.53;;;3.27;;
19095;SDS011;9680;52.520;13.332;2024-02-14T13:49:04;6.00;;;3.17;;
19095;SDS011;9680;52.520;13.332;2024-02-14T13:51:31;10.87;;;3.50;;
19095;SDS011;9680;52.520;13.332;2024-02-14T13:53:58;12.67;;;3.27;;
19095;SDS011;9680;52.520;13.332;2024-02-14T13:56:28;6.43;;;3.07;;
19095;SDS011;9680;52.520;13.332;2024-02-14T13:58:55;9.00;;;3.37;;
19095;SDS011;9680;52.520;13.332;2024-02-14T14:01:22;6.27;;;3.10;;
19095;SDS011;9680;52.520;13.332;2024-02-14T14:03:51;8.37;;;3.30;;
19095;SDS011;9680;52.520;13.332;2024-02-14T14:06:19;7.60;;;2.90;;
19095;SDS011;9680;52.520;13.332;2024-02-14T14:08:49;5.17;;;2.97;;
19095;SDS011;9680;52.520;13.332;2024-02-14T14:11:16;6.80;;;3.20;;
19095;SDS011;9680;52.520;13.332;2024-02-14T14:13:44;8.73;;;3.57;;
19095;SDS011;9680;52.520;13.332;2024-02-14T14:16:11;5.10;;;2.77;;
19095;SDS011;9680;52.520;13.332;2024-02-14T14:18:38;5.93;;;3.13;;
19095;SDS011;9680;52.520;13.332;2024-02-14T14:21:05;5.83;;;3.10;;
19095;SDS011;9680;52.520;13.332;2024-02-14T14:23:32;6.87;;;3.00;;
19095;SDS011;9680;52.520;13.332;2024-02-14T14:25:59;10.47;;;3.10;;
19095;SDS011;9680;52.520;13.332;2024-02-14T14:28:27;5.43;;;2.93;;
19095;SDS011;9680;52.520;13.332;2024-02-14T14:30:55;7.13;;;3.20;;
19095;SDS011;9680;52.520;13.332;2024-02-14T14:33:22;6.93;;;3.13;;
19095;SDS011;9680;52.520;13.332;2024-02-14T14:35:51;6.73;;;3.30;;
19095;SDS011;9680;52.520;13.332;2024-02-14T14:38:24;7.20;;;3.40;;
19095;SDS011;9680;52.520;13.332;2024-02-14T14:40:52;4.90;;;3.20;;
19095;SDS011;9680;52.520;13.332;2024-02-14T14:43:21;5.20;;;2.90;;
19095;SDS011;9680;52.520;13.332;2024-02-14T14:45:50;5.70;;;3.00;;
19095;SDS011;9680;52.520;13.332;2024-02-14T14:48:19;5.17;;;2.93;;
19095;SDS011;9680;52.520;13.332;2024-02-14T14:50:47;7.57;;;3.20;;
19095;SDS011;9680;52.520;13.332;2024-02-14T14:53:15;6.33;;;2.80;;
19095;SDS011;9680;52.520;13.332;2024-02-14T14:55:52;9.00;;;3.13;;
19095;SDS011;9680;52.520;13.332;2024-02-14T14:58:21;5.40;;;2.87;;
19095;SDS011;9680;52.520;13.332;2024-02-14T15:00:52;5.93;;;2.93;;
19095;SDS011;9680;52.520;13.332;2024-02-14T15:03:21;6.37;;;3.00;;
19095;SDS011;9680;52.520;13.332;2024-02-14T15:05:48;5.13;;;2.80;;